New Liberty, Illinois
Current Conditions -  °F | °C
As of 6:15 AM on Thursday 29 Jan 2015 (Local Time) from KM30 Reporting Station
Clear Clear  
Wind Chill: 52°   Ceiling: Unl
Heat Index: 52°   Visibility: 10mi
Dew Point: 41°   Wind: 9mph
Humidity: 66%   Direction: 230°SW
Pressure: 29.9"   Gusts: NA
Location:  37.1362°N, 88.5694°W
Report Text: KM30 291215Z AUTO 23008KT 10SM CLR 11/05 A2990 RMK AO2 T01120050
Loading
Personal Weather Stations






























Interactive Weather Map New forecast layout! Learn more

10-Day Weather Forecast

Advertisements
Track Severe Weather on mobile